Aviation Digital Data Service (ADDS)

Output produced by METARs form (0150 UTC 25 April 2015)
found at http://aviationweather.gov/adds/metars/
 
KBWI 242328Z 2500/2606 30009KT P6SM SCT250 
     FM250400 33005KT P6SM SCT090 BKN200 
     FM251500 27004KT P6SM BKN090 
     FM260000 VRB04KT 3SM -RA SCT015 OVC050 
     FM260300 VRB04KT 3SM -RA SCT008 OVC015